Time;durP1;ratioP1;P1;durP2;ratioP2;P2;SDS_P1;SDS_P2;PMS_P1;PMS_P2;Temp;Humidity;BMP_temperature;BMP_pressure;BME280_temperature;BME280_humidity;BME280_pressure;Samples;Min_cycle;Max_cycle;Signal;HPM_P1;HPM_P2
2024/04/06 00:02:16;;;;;;;;;;;12.70;99.90;;;;;;5011716;28;20486;-73
2024/04/06 00:04:42;;;;;;;5.88;1.92;;;12.70;99.90;;;;;;5026613;28;19917;-73
2024/04/06 00:07:08;;;;;;;;;;;12.70;99.90;;;;;;5026806;28;20029;-74
2024/04/06 00:09:34;;;;;;;3.38;1.33;;;12.60;99.90;;;;;;5026831;28;20511;-73
2024/04/06 00:12:00;;;;;;;3.80;1.42;;;12.50;99.90;;;;;;5011292;28;20022;-75
2024/04/06 00:14:26;;;;;;;;;;;12.50;99.90;;;;;;5026911;28;20040;-74
2024/04/06 00:16:51;;;;;;;5.30;2.03;;;12.50;99.90;;;;;;5011281;28;19959;-73
2024/04/06 00:19:17;;;;;;;;;;;12.40;99.90;;;;;;5011318;28;20053;-75
2024/04/06 00:21:42;;;;;;;2.17;0.50;;;12.40;99.90;;;;;;5010730;28;19914;-72
2024/04/06 00:24:08;;;;;;;;;;;12.40;99.90;;;;;;5011069;28;20141;-73
2024/04/06 00:26:33;;;;;;;2.55;0.80;;;12.50;99.90;;;;;;5009883;28;20366;-72
2024/04/06 00:28:59;;;;;;;;;;;12.50;99.90;;;;;;5009922;28;20497;-73
2024/04/06 00:31:25;;;;;;;3.25;0.85;;;12.40;99.90;;;;;;5010622;28;19909;-72
2024/04/06 00:33:51;;;;;;;;;;;12.40;99.90;;;;;;5010960;28;20552;-73
2024/04/06 00:36:16;;;;;;;10.43;1.48;;;12.40;99.90;;;;;;5026049;28;20373;-73
2024/04/06 00:38:42;;;;;;;3.15;0.63;;;12.40;99.90;;;;;;5010487;28;20117;-75
2024/04/06 00:41:08;;;;;;;;;;;12.40;99.90;;;;;;5010008;28;20120;-76
2024/04/06 00:43:34;;;;;;;5.32;0.70;;;12.40;99.90;;;;;;5010396;28;19917;-75
2024/04/06 00:45:59;;;;;;;;;;;12.30;99.90;;;;;;5010800;28;20029;-75
2024/04/06 00:48:25;;;;;;;3.10;0.60;;;12.30;99.90;;;;;;5010376;28;19909;-74
2024/04/06 00:50:53;;;;;;;;;;;12.30;99.90;;;;;;5025815;28;20022;-75
2024/04/06 00:53:19;;;;;;;1.38;0.60;;;12.30;99.90;;;;;;5025641;28;19906;-74
2024/04/06 00:55:45;;;;;;;;;;;12.20;99.90;;;;;;5010758;28;20040;-73
2024/04/06 00:58:10;;;;;;;5.28;0.63;;;12.20;99.90;;;;;;5025389;28;19909;-75
2024/04/06 01:00:36;;;;;;;;;;;12.20;99.90;;;;;;5010616;28;20124;-75
2024/04/06 01:03:02;;;;;;;1.48;0.65;;;12.10;99.90;;;;;;5008915;28;19905;-74
2024/04/06 01:05:28;;;;;;;1.88;0.70;;;12.10;99.90;;;;;;5010054;28;20088;-75
2024/04/06 01:07:54;;;;;;;;;;;12.20;99.90;;;;;;5010806;28;20026;-74
2024/04/06 01:10:20;;;;;;;3.13;0.77;;;12.20;99.90;;;;;;5010053;28;19912;-73
2024/04/06 01:12:45;;;;;;;2.13;0.80;;;12.20;99.90;;;;;;5008817;28;20038;-75
2024/04/06 01:15:11;;;;;;;;;;;12.20;99.90;;;;;;5010314;28;20116;-74
2024/04/06 01:17:37;;;;;;;3.38;0.60;;;12.20;99.90;;;;;;5025021;28;19956;-75
2024/04/06 01:20:06;;;;;;;;;;;12.10;99.90;;;;;;5010209;28;20050;-73
2024/04/06 01:22:32;;;;;;;5.55;0.80;;;12.20;99.90;;;;;;5009936;28;20000;-75
2024/04/06 01:24:59;;;;;;;2.65;0.95;;;12.20;99.90;;;;;;5010100;28;20038;-74
2024/04/06 01:27:24;;;;;;;4.60;0.70;;;12.20;99.90;;;;;;5025006;28;20526;-75
2024/04/06 01:29:50;;;;;;;;;;;12.10;99.90;;;;;;5009049;28;20022;-74
2024/04/06 01:32:16;;;;;;;2.40;0.60;;;12.10;99.90;;;;;;5024856;28;19968;-74
2024/04/06 01:34:41;;;;;;;;;;;12.10;99.90;;;;;;5010525;28;20033;-75
2024/04/06 01:37:07;;;;;;;2.92;1.33;;;12.00;99.90;;;;;;5008345;28;19909;-75
2024/04/06 01:39:34;;;;;;;;;;;11.90;99.90;;;;;;5025135;28;20030;-75
2024/04/06 01:41:59;;;;;;;3.95;1.73;;;12.00;99.90;;;;;;5008300;28;19980;-75
2024/04/06 01:44:25;;;;;;;;;;;11.90;99.90;;;;;;5008633;28;20586;-74
2024/04/06 01:46:50;;;;;;;4.63;0.90;;;12.00;99.90;;;;;;5008435;28;20366;-74
2024/04/06 01:49:16;;;;;;;5.25;1.27;;;11.90;99.90;;;;;;5009670;28;20061;-76
2024/04/06 01:51:42;;;;;;;;;;;11.90;99.90;;;;;;5025479;28;20419;-74
2024/04/06 01:54:07;;;;;;;2.42;0.75;;;11.90;99.90;;;;;;5013279;28;19909;-73
2024/04/06 01:56:33;;;;;;;;;;;11.90;99.90;;;;;;5013965;28;20041;-75
2024/04/06 01:58:58;;;;;;;3.60;0.85;;;11.90;99.90;;;;;;5028541;28;20263;-74
2024/04/06 02:01:24;;;;;;;;;;;11.90;99.90;;;;;;5013676;28;20553;-74
2024/04/06 02:03:50;;;;;;;2.03;0.85;;;11.90;99.90;;;;;;5028574;28;20384;-75
2024/04/06 02:06:17;;;;;;;;;;;11.80;99.90;;;;;;5012409;28;20029;-74
2024/04/06 02:08:42;;;;;;;6.63;1.73;;;11.80;99.90;;;;;;5028551;28;19905;-75
2024/04/06 02:11:08;;;;;;;;;;;11.80;99.90;;;;;;5012311;28;20033;-75
2024/04/06 02:13:34;;;;;;;5.15;1.17;;;11.70;99.90;;;;;;5013037;28;19909;-74
2024/04/06 02:16:00;;;;;;;3.08;0.98;;;11.70;99.90;;;;;;5012105;28;20083;-74
2024/04/06 02:18:26;;;;;;;2.78;0.80;;;11.60;99.90;;;;;;5028048;28;20050;-73
2024/04/06 02:20:52;;;;;;;;;;;11.70;99.90;;;;;;5013422;28;20037;-75
2024/04/06 02:23:17;;;;;;;4.60;1.48;;;11.70;99.90;;;;;;5011908;28;19910;-74
2024/04/06 02:25:43;;;;;;;;;;;11.70;99.90;;;;;;5012169;28;20076;-74
2024/04/06 02:28:09;;;;;;;4.65;1.60;;;11.70;99.90;;;;;;5013001;28;20378;-74
2024/04/06 02:30:34;;;;;;;;;;;11.70;99.90;;;;;;5028669;28;20022;-75
2024/04/06 02:33:00;;;;;;;2.60;1.27;;;11.70;99.90;;;;;;5011805;28;19912;-75
2024/04/06 02:35:25;;;;;;;;;;;11.70;99.90;;;;;;5011954;28;20045;-74
2024/04/06 02:37:51;;;;;;;6.20;1.00;;;11.80;99.90;;;;;;5028199;28;19960;-73
2024/04/06 02:40:17;;;;;;;;;;;11.80;99.90;;;;;;5012969;28;20113;-75
2024/04/06 02:42:43;;;;;;;4.82;1.00;;;11.80;99.90;;;;;;5027893;28;20377;-75
2024/04/06 02:45:09;;;;;;;4.60;1.35;;;11.80;99.90;;;;;;5011206;28;20064;-75
2024/04/06 02:47:34;;;;;;;;;;;11.90;99.90;;;;;;5011607;28;20069;-75
2024/04/06 02:50:00;;;;;;;3.35;0.90;;;11.90;99.90;;;;;;5027726;28;19905;-75
2024/04/06 02:52:26;;;;;;;2.28;0.68;;;11.90;99.90;;;;;;5011062;28;20124;-72
2024/04/06 02:54:52;;;;;;;2.75;0.77;;;12.00;99.90;;;;;;5012425;28;20025;-75
2024/04/06 02:57:20;;;;;;;;;;;12.00;99.90;;;;;;5011588;28;20087;-74
2024/04/06 02:59:47;;;;;;;2.33;0.80;;;12.00;99.90;;;;;;5027451;28;19913;-75
2024/04/06 03:02:13;;;;;;;7.47;1.38;;;12.00;99.90;;;;;;5012234;28;20033;-75
2024/04/06 03:04:40;;;;;;;5.18;1.20;;;12.00;99.90;;;;;;5011413;28;20025;-75
2024/04/06 03:07:05;;;;;;;3.72;0.93;;;12.00;99.90;;;;;;5010955;28;20033;-75
2024/04/06 03:09:33;;;;;;;;;;;12.00;99.90;;;;;;5012633;28;20101;-75
2024/04/06 03:11:58;;;;;;;3.20;0.90;;;12.00;99.90;;;;;;5012223;28;19913;-75
2024/04/06 03:14:24;;;;;;;;;;;12.00;99.90;;;;;;5011155;28;20034;-74
2024/04/06 03:16:49;;;;;;;2.22;0.80;;;12.00;99.90;;;;;;5027189;28;19909;-74
2024/04/06 03:19:15;;;;;;;;;;;11.90;99.90;;;;;;5027525;28;20060;-74
2024/04/06 03:21:41;;;;;;;5.05;1.00;;;11.90;99.90;;;;;;5010626;28;20028;-75
2024/04/06 03:24:06;;;;;;;;;;;11.90;99.90;;;;;;5012119;28;20070;-74
2024/04/06 03:26:32;;;;;;;8.82;2.13;;;11.90;99.90;;;;;;5010860;28;19909;-74
2024/04/06 03:28:57;;;;;;;;;;;11.90;99.90;;;;;;5012200;28;20080;-73
2024/04/06 03:31:23;;;;;;;6.10;2.05;;;11.90;99.90;;;;;;5012100;28;20701;-73
2024/04/06 03:33:49;;;;;;;;;;;11.90;99.90;;;;;;5012214;28;20473;-74
2024/04/06 03:36:15;;;;;;;6.32;2.05;;;11.90;99.90;;;;;;5026951;28;20377;-74
2024/04/06 03:38:41;;;;;;;;;;;11.90;99.90;;;;;;5012386;28;20061;-75
2024/04/06 03:41:07;;;;;;;6.25;2.03;;;12.00;99.90;;;;;;5010518;28;19923;-75
2024/04/06 03:43:32;;;;;;;;;;;12.00;99.90;;;;;;5010523;28;20125;-74
2024/04/06 03:45:58;;;;;;;7.38;0.95;;;12.00;99.90;;;;;;5026367;28;19909;-75
2024/04/06 03:48:24;;;;;;;2.75;0.82;;;12.00;99.90;;;;;;5010135;28;20026;-74
2024/04/06 03:50:50;;;;;;;;;;;12.00;99.90;;;;;;5011688;28;20084;-75
2024/04/06 03:53:28;;;;;;;5.05;1.20;;;12.10;99.90;;;;;;5011330;28;19940;-74
2024/04/06 03:55:53;;;;;;;3.70;1.60;;;12.10;99.90;;;;;;5011356;28;20018;-74
2024/04/06 03:58:19;;;;;;;;;;;12.20;99.90;;;;;;5026854;28;20034;-73
2024/04/06 04:00:45;;;;;;;5.53;1.45;;;12.20;99.90;;;;;;5026134;28;19917;-74
2024/04/06 04:03:10;;;;;;;;;;;12.20;99.90;;;;;;5011523;28;20108;-74
2024/04/06 04:05:36;;;;;;;4.18;1.40;;;12.10;99.90;;;;;;5011130;28;19956;-74
2024/04/06 04:08:01;;;;;;;;;;;12.10;99.90;;;;;;5010341;28;20072;-73
2024/04/06 04:10:27;;;;;;;3.72;1.17;;;12.10;99.90;;;;;;5011021;28;19959;-75
2024/04/06 04:12:52;;;;;;;;;;;12.10;99.90;;;;;;5011327;28;20045;-73
2024/04/06 04:15:18;;;;;;;8.02;1.90;;;12.10;99.90;;;;;;5010926;28;20004;-73
2024/04/06 04:17:44;;;;;;;;;;;12.10;99.90;;;;;;5011396;28;20056;-74
2024/04/06 04:20:09;;;;;;;5.30;1.35;;;12.10;99.90;;;;;;5025779;28;20337;-74
2024/04/06 04:22:35;;;;;;;4.85;2.03;;;12.10;99.90;;;;;;5010750;28;20030;-73
2024/04/06 04:25:01;;;;;;;;;;;12.10;99.90;;;;;;5011098;28;20065;-73
2024/04/06 04:27:26;;;;;;;6.25;1.52;;;12.10;99.90;;;;;;5010656;28;19909;-73
2024/04/06 04:29:52;;;;;;;4.78;2.25;;;12.10;99.90;;;;;;5025854;28;20022;-74
2024/04/06 04:32:17;;;;;;;;;;;12.10;99.90;;;;;;5009905;28;20113;-74
2024/04/06 04:34:43;;;;;;;5.32;2.47;;;12.10;99.90;;;;;;5025606;28;20260;-73
2024/04/06 04:37:09;;;;;;;;;;;12.10;99.90;;;;;;5010787;28;20092;-74
2024/04/06 04:39:34;;;;;;;7.60;2.10;;;12.20;99.90;;;;;;5010516;28;20002;-74
2024/04/06 04:42:00;;;;;;;;;;;12.20;99.90;;;;;;5010811;28;20080;-73
2024/04/06 04:44:26;;;;;;;3.35;1.30;;;12.30;99.90;;;;;;5025796;28;19913;-73
2024/04/06 04:46:52;;;;;;;2.42;1.10;;;12.30;99.90;;;;;;5010354;28;20021;-74
2024/04/06 04:49:18;;;;;;;;;;;12.30;99.90;;;;;;5010910;28;20644;-74
2024/04/06 04:51:44;;;;;;;3.38;1.40;;;12.40;99.90;;;;;;5025256;28;19905;-73
2024/04/06 04:54:10;;;;;;;3.78;1.23;;;12.40;99.90;;;;;;5010015;28;20026;-73
2024/04/06 04:56:36;;;;;;;;;;;12.40;99.90;;;;;;5009372;28;20029;-74
2024/04/06 04:59:03;;;;;;;3.78;1.10;;;12.50;99.90;;;;;;5008945;28;19960;-74
2024/04/06 05:01:29;;;;;;;7.00;1.48;;;12.50;99.90;;;;;;5009716;28;20120;-74
2024/04/06 05:03:54;;;;;;;;;;;12.60;99.90;;;;;;5010322;28;20502;-74
2024/04/06 05:06:20;;;;;;;4.05;1.40;;;12.70;99.90;;;;;;5024654;28;19918;-73
2024/04/06 05:08:46;;;;;;;;;;;12.70;99.90;;;;;;5025328;28;20030;-73
2024/04/06 05:11:11;;;;;;;2.88;1.15;;;12.80;99.90;;;;;;5009905;28;19932;-74
2024/04/06 05:13:37;;;;;;;4.82;1.55;;;12.80;99.90;;;;;;5009790;28;20092;-73
2024/04/06 05:16:03;;;;;;;24.92;14.52;;;12.80;99.90;;;;;;5009866;28;20030;-73
2024/04/06 05:18:28;;;;;;;37.30;22.17;;;12.90;99.90;;;;;;5008284;28;20042;-74
2024/04/06 05:20:55;;;;;;;;;;;12.80;99.90;;;;;;5008765;28;20490;-75
2024/04/06 05:23:22;;;;;;;30.13;16.40;;;12.90;99.90;;;;;;5008347;28;19917;-73
2024/04/06 05:25:49;;;;;;;25.73;13.52;;;12.90;99.90;;;;;;5009848;28;20088;-74
2024/04/06 05:28:16;;;;;;;19.33;9.60;;;12.90;99.90;;;;;;5009260;28;20018;-74
2024/04/06 05:30:46;;;;;;;15.15;7.78;;;12.90;99.90;;;;;;5008356;28;20034;-74
2024/04/06 05:33:14;;;;;;;10.75;5.63;;;12.90;99.90;;;;;;5008196;28;20139;-74
2024/04/06 05:35:41;;;;;;;11.95;5.55;;;12.90;99.90;;;;;;5008345;28;20026;-74
2024/04/06 05:38:07;;;;;;;7.22;3.88;;;12.90;99.90;;;;;;5008448;28;20034;-73
2024/04/06 05:40:39;;;;;;;8.23;3.33;;;13.00;99.90;;;;;;5009601;28;20092;-74
2024/04/06 05:43:05;;;;;;;6.43;2.30;;;13.00;99.90;;;;;;5009408;28;20411;-73
2024/04/06 05:45:31;;;;;;;8.35;3.40;;;13.00;99.90;;;;;;5007963;28;20022;-73
2024/04/06 05:48:03;;;;;;;5.40;2.20;;;13.00;99.90;;;;;;5009487;28;20498;-72
2024/04/06 05:50:30;;;;;;;6.60;2.42;;;13.10;99.90;;;;;;5024450;28;20076;-73
2024/04/06 05:52:57;;;;;;;6.30;2.28;;;13.20;99.90;;;;;;5008018;28;20037;-73
2024/04/06 05:55:22;;;;;;;5.05;1.77;;;13.30;99.90;;;;;;5009177;28;20029;-72
2024/04/06 05:57:48;;;;;;;6.13;2.15;;;13.30;99.90;;;;;;5009532;28;20030;-75
2024/04/06 06:02:58;;;;;;;7.53;1.88;;;13.50;99.90;;;;;;5009647;28;20432;-74
2024/04/06 06:05:24;;;;;;;4.45;2.05;;;13.50;99.90;;;;;;5024522;28;20033;-74
2024/04/06 06:07:49;;;;;;;16.00;10.23;;;13.60;99.90;;;;;;5009294;28;20500;-74
2024/04/06 06:10:15;;;;;;;16.98;9.02;;;13.60;99.90;;;;;;5008139;28;20033;-74
2024/04/06 06:12:41;;;;;;;14.55;5.40;;;13.70;99.90;;;;;;5009407;28;20422;-74
2024/04/06 06:15:07;;;;;;;12.55;5.25;;;13.80;99.90;;;;;;5009308;28;20022;-74
2024/04/06 06:17:33;;;;;;;;;;;13.80;99.90;;;;;;5009818;28;20065;-74
2024/04/06 06:19:59;;;;;;;4.97;2.53;;;13.90;99.90;;;;;;5024034;28;19924;-73
2024/04/06 06:22:25;;;;;;;7.55;2.60;;;13.90;99.90;;;;;;5024604;28;20050;-74
2024/04/06 06:24:50;;;;;;;8.65;3.40;;;13.90;99.90;;;;;;5008354;28;20029;-73
2024/04/06 06:27:16;;;;;;;4.75;2.63;;;14.00;99.90;;;;;;5008010;28;20410;-74
2024/04/06 06:29:42;;;;;;;11.68;3.80;;;14.10;99.90;;;;;;5007961;28;20018;-73
2024/04/06 06:32:08;;;;;;;10.07;3.58;;;14.30;99.90;;;;;;5009205;28;20034;-72
2024/04/06 06:34:34;;;;;;;5.72;3.08;;;14.50;99.90;;;;;;5024722;28;20033;-74
2024/04/06 06:37:00;;;;;;;7.20;3.47;;;14.70;99.90;;;;;;5009123;28;20552;-74
2024/04/06 06:39:25;;;;;;;6.65;2.53;;;14.90;99.90;;;;;;5010171;28;20399;-73
2024/04/06 06:41:54;;;;;;;4.20;1.63;;;15.00;99.90;;;;;;5011345;28;20041;-74
2024/04/06 06:44:20;;;;;;;3.83;1.60;;;15.10;99.90;;;;;;5027718;28;20025;-74
2024/04/06 06:46:46;;;;;;;7.15;1.55;;;15.30;99.90;;;;;;5011439;28;20036;-74
2024/04/06 06:49:12;;;;;;;3.67;1.50;;;15.40;99.90;;;;;;5012621;28;20022;-74
2024/04/06 06:51:38;;;;;;;6.70;1.33;;;15.50;99.90;;;;;;5012471;28;20029;-74
2024/04/06 06:54:04;;;;;;;3.20;1.20;;;15.70;99.90;;;;;;5012661;28;20400;-74
2024/04/06 06:56:30;;;;;;;4.20;1.40;;;15.80;99.90;;;;;;5027959;28;20499;-74
2024/04/06 06:58:56;;;;;;;3.25;1.35;;;15.90;99.90;;;;;;5011136;28;20045;-73
2024/04/06 07:01:22;;;;;;;9.68;2.38;;;16.00;99.90;;;;;;5011017;28;20120;-73
2024/04/06 07:03:48;;;;;;;8.40;2.90;;;16.10;99.90;;;;;;5012707;28;20034;-74
2024/04/06 07:06:13;;;;;;;6.90;2.80;;;16.20;99.90;;;;;;5012122;28;20026;-74
2024/04/06 07:08:43;;;;;;;5.30;1.92;;;16.20;99.90;;;;;;5012141;28;20411;-73
2024/04/06 07:11:09;;;;;;;5.18;1.90;;;16.30;99.90;;;;;;5010926;28;20218;-73
2024/04/06 07:13:36;;;;;;;7.47;2.42;;;16.40;99.90;;;;;;5012196;28;20478;-73
2024/04/06 07:16:09;;;;;;;4.60;2.08;;;16.40;99.90;;;;;;5010898;28;20422;-75
2024/04/06 07:18:39;;;;;;;6.05;1.80;;;16.50;99.90;;;;;;5012015;28;20038;-74
2024/04/06 07:21:08;;;;;;;8.10;1.83;;;16.60;99.90;;;;;;5011825;28;20045;-73
2024/04/06 07:23:33;;;;;;;9.90;3.10;;;16.70;99.90;;;;;;5027322;28;20033;-74
2024/04/06 07:25:59;;;;;;;7.05;2.88;;;16.80;99.90;;;;;;5011847;28;20034;-74
2024/04/06 07:28:25;;;;;;;8.82;2.47;;;16.80;99.90;;;;;;5027082;28;20104;-74
2024/04/06 07:30:51;;;;;;;8.73;3.38;;;16.80;99.90;;;;;;5010335;28;20037;-74
2024/04/06 07:33:17;;;;;;;9.27;2.38;;;16.70;99.90;;;;;;5010558;28;20030;-73
2024/04/06 07:35:45;;;;;;;7.30;2.50;;;16.70;99.90;;;;;;5011772;28;20033;-74
2024/04/06 07:38:11;;;;;;;13.25;3.78;;;16.60;99.90;;;;;;5010367;28;20060;-73
2024/04/06 07:40:37;;;;;;;6.72;2.88;;;16.50;99.90;;;;;;5010186;28;20069;-74
2024/04/06 07:43:02;;;;;;;6.55;2.30;;;16.50;99.90;;;;;;5011485;28;20597;-74
2024/04/06 07:45:29;;;;;;;7.35;2.35;;;16.50;99.90;;;;;;5011506;28;20068;-74
2024/04/06 07:47:55;;;;;;;8.52;2.97;;;16.50;99.90;;;;;;5011550;28;20117;-75
2024/04/06 07:50:21;;;;;;;11.57;3.03;;;16.50;99.90;;;;;;5011147;28;20109;-73
2024/04/06 07:52:47;;;;;;;9.30;2.35;;;16.50;99.90;;;;;;5011284;28;20018;-73
2024/04/06 07:55:12;;;;;;;11.05;2.63;;;16.50;99.90;;;;;;5011468;28;20076;-74
2024/04/06 07:57:38;;;;;;;8.85;2.30;;;16.70;99.90;;;;;;5026844;28;20394;-74
2024/04/06 08:00:05;;;;;;;6.13;2.10;;;16.80;99.90;;;;;;5011223;28;20036;-73
2024/04/06 08:02:31;;;;;;;5.78;2.00;;;16.90;99.90;;;;;;5011334;28;20030;-73
2024/04/06 08:04:57;;;;;;;4.47;1.50;;;17.00;99.90;;;;;;5011107;28;20053;-74
2024/04/06 08:07:23;;;;;;;8.43;1.75;;;17.20;99.90;;;;;;5011145;28;20036;-73
2024/04/06 08:09:49;;;;;;;6.13;1.95;;;17.30;99.90;;;;;;5011050;28;20037;-73
2024/04/06 08:12:15;;;;;;;11.15;2.75;;;17.60;99.90;;;;;;5011006;28;20446;-74
2024/04/06 08:14:41;;;;;;;10.52;2.83;;;17.80;99.90;;;;;;5010570;28;20590;-74
2024/04/06 08:17:06;;;;;;;5.32;2.30;;;18.10;99.90;;;;;;5009415;28;20407;-73
2024/04/06 08:19:32;;;;;;;7.63;2.35;;;18.40;99.90;;;;;;5010672;28;20058;-74
2024/04/06 08:21:58;;;;;;;5.95;2.65;;;18.60;99.90;;;;;;5026091;28;20046;-73
2024/04/06 08:24:23;;;;;;;9.07;3.00;;;18.90;99.90;;;;;;5009339;28;20064;-73
2024/04/06 08:26:49;;;;;;;6.45;2.70;;;19.40;99.90;;;;;;5025857;28;20041;-74
2024/04/06 08:29:15;;;;;;;10.20;3.00;;;19.80;99.90;;;;;;5009226;28;20041;-74
2024/04/06 08:31:41;;;;;;;6.97;2.72;;;20.00;99.90;;;;;;5010371;28;20034;-74
2024/04/06 08:34:08;;;;;;;11.60;3.67;;;20.20;99.50;;;;;;5025620;28;20045;-73
2024/04/06 08:36:34;;;;;;;6.28;3.03;;;20.40;98.60;;;;;;5025665;28;20030;-74
2024/04/06 08:39:00;;;;;;;12.05;3.65;;;20.60;98.10;;;;;;5009048;28;20028;-74
2024/04/06 08:41:27;;;;;;;8.18;4.20;;;20.80;97.10;;;;;;5009014;28;20042;-74
2024/04/06 08:43:55;;;;;;;10.90;3.55;;;21.00;96.60;;;;;;5009027;28;20127;-73
2024/04/06 08:46:22;;;;;;;12.32;3.88;;;21.20;95.50;;;;;;5008824;28;20058;-74
2024/04/06 08:48:49;;;;;;;9.98;4.30;;;21.40;94.60;;;;;;5008943;28;20022;-74
2024/04/06 08:51:17;;;;;;;7.50;3.83;;;21.50;93.70;;;;;;5010590;28;20114;-75
2024/04/06 08:53:44;;;;;;;8.65;3.85;;;21.60;92.90;;;;;;5010185;28;20088;-74
2024/04/06 08:56:11;;;;;;;10.20;3.92;;;21.80;93.00;;;;;;5008926;28;20029;-74
2024/04/06 08:58:37;;;;;;;8.75;3.63;;;22.00;92.70;;;;;;5025363;28;20410;-73
2024/04/06 09:01:04;;;;;;;9.52;3.40;;;22.10;92.00;;;;;;5010067;28;20038;-74
2024/04/06 09:03:33;;;;;;;8.95;3.30;;;22.20;90.80;;;;;;5024369;28;20026;-74
2024/04/06 09:05:59;;;;;;;8.15;3.15;;;22.30;90.20;;;;;;5008678;28;20030;-74
2024/04/06 09:08:25;;;;;;;8.75;3.13;;;22.10;90.00;;;;;;5010014;28;20034;-74
2024/04/06 09:10:56;;;;;;;8.18;3.10;;;22.10;90.10;;;;;;5010059;28;20483;-75
2024/04/06 09:13:22;;;;;;;9.75;2.83;;;22.10;90.00;;;;;;5008665;28;20036;-74
2024/04/06 09:15:48;;;;;;;11.85;2.92;;;22.10;89.00;;;;;;5008337;28;20037;-73
2024/04/06 09:18:13;;;;;;;6.90;3.00;;;22.10;89.00;;;;;;5008371;28;20126;-74
2024/04/06 09:20:39;;;;;;;6.10;2.40;;;22.00;89.70;;;;;;5003929;28;20072;-74
2024/04/06 09:23:07;;;;;;;7.22;2.90;;;22.10;89.40;;;;;;5009612;28;20060;-73
2024/04/06 09:25:32;;;;;;;8.60;2.78;;;22.00;88.80;;;;;;5008616;28;20030;-74
2024/04/06 09:27:58;;;;;;;10.95;2.65;;;22.10;89.10;;;;;;5010333;28;20066;-74
2024/04/06 09:30:34;;;;;;;5.63;2.97;;;22.10;89.40;;;;;;5009680;28;20026;-74
2024/04/06 09:33:03;;;;;;;8.27;3.03;;;22.00;89.70;;;;;;5008295;28;20113;-75
2024/04/06 09:35:30;;;;;;;10.25;2.72;;;21.90;89.60;;;;;;5009727;28;20084;-74
2024/04/06 09:37:55;;;;;;;8.55;2.83;;;21.70;90.00;;;;;;5008389;28;20033;-74
2024/04/06 09:40:23;;;;;;;7.40;3.08;;;21.70;90.70;;;;;;5007898;28;20080;-74
2024/04/06 09:42:49;;;;;;;8.02;2.60;;;21.90;91.20;;;;;;5009476;28;20041;-74
2024/04/06 09:45:16;;;;;;;6.00;3.33;;;22.30;90.70;;;;;;5009543;28;20174;-74
2024/04/06 09:47:43;;;;;;;8.95;2.53;;;22.90;89.50;;;;;;5008195;28;20038;-74
2024/04/06 09:50:09;;;;;;;6.40;2.63;;;23.50;88.00;;;;;;5009430;28;20022;-73
2024/04/06 09:52:35;;;;;;;10.43;3.90;;;24.00;84.40;;;;;;5024843;28;20455;-74
2024/04/06 09:55:03;;;;;;;6.43;2.55;;;24.20;82.80;;;;;;5008192;28;20494;-74
2024/04/06 09:57:29;;;;;;;10.23;4.03;;;24.40;80.90;;;;;;5024406;28;20026;-74
2024/04/06 10:00:07;;;;;;;11.52;4.47;;;24.40;79.30;;;;;;5008134;28;20213;-74
2024/04/06 10:02:33;;;;;;;8.18;3.78;;;24.60;77.50;;;;;;5009419;28;20030;-73
2024/04/06 10:05:05;;;;;;;8.30;2.42;;;24.50;77.40;;;;;;5009214;28;20080;-74
2024/04/06 10:07:33;;;;;;;4.13;1.92;;;24.50;76.10;;;;;;5009179;28;20026;-73
2024/04/06 10:10:03;;;;;;;4.07;1.83;;;24.40;76.10;;;;;;5007840;28;20026;-74
2024/04/06 10:12:41;;;;;;;6.45;3.03;;;24.40;76.20;;;;;;5008197;28;20026;-74
2024/04/06 10:15:21;;;;;;;5.80;2.35;;;24.30;74.80;;;;;;5013104;28;20059;-74
2024/04/06 10:17:49;;;;;;;4.82;2.05;;;24.20;75.20;;;;;;5011759;28;20026;-74
2024/04/06 10:20:34;;;;;;;7.47;2.00;;;24.20;76.80;;;;;;5013149;28;20116;-74
2024/04/06 10:23:00;;;;;;;6.95;1.60;;;24.30;75.80;;;;;;5028824;28;20052;-74
2024/04/06 10:25:37;;;;;;;7.43;2.05;;;24.40;74.70;;;;;;5013015;28;20022;-75
2024/04/06 10:28:09;;;;;;;5.28;1.83;;;24.60;74.10;;;;;;5011128;28;20498;-73
2024/04/06 10:30:37;;;;;;;4.45;1.90;;;25.20;73.10;;;;;;5011602;28;20578;-74
2024/04/06 10:33:03;;;;;;;5.95;1.17;;;26.10;70.50;;;;;;5012701;28;20034;-74
2024/04/06 10:35:29;;;;;;;3.03;0.82;;;26.90;68.20;;;;;;5011451;28;20018;-74
2024/04/06 10:37:55;;;;;;;6.65;1.50;;;27.30;62.70;;;;;;5012855;28;20498;-74
2024/04/06 10:40:33;;;;;;;6.93;1.40;;;27.40;61.40;;;;;;5011459;28;20034;-74
2024/04/06 10:43:00;;;;;;;5.18;1.27;;;27.40;61.60;;;;;;5011356;28;20483;-74
2024/04/06 10:45:26;;;;;;;2.38;0.98;;;27.30;59.40;;;;;;5013063;28;20072;-74
2024/04/06 10:47:51;;;;;;;6.05;1.00;;;27.10;58.30;;;;;;5012769;28;20072;-73
2024/04/06 10:50:18;;;;;;;4.22;0.88;;;26.90;57.80;;;;;;5011355;28;20095;-74
2024/04/06 10:52:48;;;;;;;7.22;0.90;;;26.70;59.20;;;;;;5012459;28;20045;-74
2024/04/06 10:55:15;;;;;;;3.65;1.20;;;26.60;58.80;;;;;;5012418;28;20033;-74
2024/04/06 10:57:43;;;;;;;6.55;1.15;;;26.30;59.10;;;;;;5012402;28;20371;-73
2024/04/06 11:00:10;;;;;;;2.47;0.90;;;26.40;59.40;;;;;;5011018;28;20030;-73
2024/04/06 11:02:37;;;;;;;3.10;0.85;;;26.40;59.60;;;;;;5011025;28;20411;-74
2024/04/06 11:05:04;;;;;;;2.60;0.60;;;26.40;58.50;;;;;;5005566;28;20021;-74
2024/04/06 11:07:30;;;;;;;4.32;1.00;;;26.40;52.60;;;;;;5011000;28;20030;-74
2024/04/06 11:09:56;;;;;;;3.25;0.88;;;26.40;52.30;;;;;;5010693;28;20038;-73
2024/04/06 11:12:27;;;;;;;6.90;0.70;;;26.40;53.10;;;;;;5012016;28;20034;-74
2024/04/06 11:14:53;;;;;;;4.20;0.60;;;26.30;52.60;;;;;;5010803;28;20022;-74
2024/04/06 11:17:18;;;;;;;7.05;0.60;;;26.50;54.50;;;;;;5012120;28;20037;-75
2024/04/06 11:19:44;;;;;;;2.00;0.60;;;26.60;52.90;;;;;;5010350;28;20042;-74
2024/04/06 11:22:10;;;;;;;7.80;0.70;;;26.60;52.10;;;;;;5011850;28;20495;-75
2024/04/06 11:24:36;;;;;;;6.68;1.00;;;26.70;51.70;;;;;;5011644;28;20022;-74
2024/04/06 11:27:08;;;;;;;4.80;0.85;;;26.60;51.20;;;;;;5011448;28;20033;-74
2024/04/06 11:29:34;;;;;;;3.72;1.38;;;26.50;52.80;;;;;;5011595;28;20044;-74
2024/04/06 11:31:59;;;;;;;2.72;0.68;;;26.40;52.90;;;;;;5010541;28;20411;-74
2024/04/06 11:34:25;;;;;;;1.55;0.50;;;26.30;53.20;;;;;;5011846;28;20042;-74
2024/04/06 11:36:51;;;;;;;4.03;0.80;;;26.10;52.20;;;;;;5010274;28;20037;-74
2024/04/06 11:39:17;;;;;;;2.38;0.50;;;25.90;53.50;;;;;;5010390;28;20026;-75
2024/04/06 11:41:42;;;;;;;6.22;0.73;;;25.70;54.40;;;;;;5011466;28;20038;-75
2024/04/06 11:44:08;;;;;;;4.78;1.20;;;25.70;54.00;;;;;;5011401;28;20026;-74
2024/04/06 11:46:34;;;;;;;3.58;0.60;;;25.70;53.20;;;;;;5011320;28;20494;-74
2024/04/06 11:49:03;;;;;;;1.45;0.47;;;25.70;52.20;;;;;;5010131;28;20662;-75
2024/04/06 11:51:29;;;;;;;6.53;0.57;;;25.80;52.10;;;;;;5011350;28;20084;-75
2024/04/06 11:53:54;;;;;;;2.08;0.60;;;26.00;52.00;;;;;;5011496;28;20025;-74
2024/04/06 11:56:20;;;;;;;1.77;0.40;;;26.10;51.50;;;;;;5011226;28;20032;-74
2024/04/06 11:58:47;;;;;;;2.25;0.50;;;26.20;52.50;;;;;;5011063;28;20108;-75
2024/04/06 12:01:13;;;;;;;2.13;0.45;;;26.20;50.00;;;;;;5010993;28;20030;-75
2024/04/06 12:03:39;;;;;;;2.13;0.50;;;26.20;47.90;;;;;;5010880;28;20033;-75
2024/04/06 12:06:06;;;;;;;1.70;0.50;;;26.20;47.70;;;;;;5010931;28;20021;-75
2024/04/06 12:08:32;;;;;;;3.05;0.70;;;26.10;47.50;;;;;;5009821;28;20053;-75
2024/04/06 12:10:57;;;;;;;2.30;0.50;;;26.10;49.10;;;;;;5010990;28;20069;-74
2024/04/06 12:13:23;;;;;;;3.45;0.63;;;26.00;49.30;;;;;;5011011;28;20038;-75
2024/04/06 12:15:49;;;;;;;3.13;0.50;;;25.90;49.60;;;;;;5005337;28;20026;-74
2024/04/06 12:18:14;;;;;;;1.52;0.40;;;25.80;49.30;;;;;;5010723;28;20104;-75
2024/04/06 12:20:40;;;;;;;1.88;0.50;;;25.60;49.50;;;;;;5010673;28;20045;-73
2024/04/06 12:23:06;;;;;;;10.60;0.63;;;25.60;49.70;;;;;;5010299;28;20502;-74
2024/04/06 12:25:32;;;;;;;1.50;0.50;;;25.40;49.00;;;;;;5009370;28;20434;-74
2024/04/06 12:27:58;;;;;;;1.52;0.50;;;25.30;48.80;;;;;;5025860;28;20454;-74
2024/04/06 12:30:24;;;;;;;3.80;0.47;;;25.30;48.90;;;;;;5009148;28;20034;-73
2024/04/06 12:32:49;;;;;;;4.22;0.70;;;25.30;49.70;;;;;;5010552;28;20030;-73
2024/04/06 12:35:15;;;;;;;6.05;0.90;;;25.40;50.60;;;;;;5008473;28;20033;-74
2024/04/06 12:37:43;;;;;;;2.80;0.60;;;25.40;50.20;;;;;;5024028;28;20034;-74
2024/04/06 12:40:10;;;;;;;2.08;0.55;;;25.30;49.20;;;;;;5025371;28;20030;-74
2024/04/06 12:42:36;;;;;;;1.55;0.50;;;25.20;48.80;;;;;;5025741;28;20613;-74
2024/04/06 12:45:02;;;;;;;14.95;1.10;;;25.30;49.00;;;;;;5010283;28;20591;-74
2024/04/06 12:47:28;;;;;;;2.25;0.50;;;25.30;48.50;;;;;;5008473;28;20026;-74
2024/04/06 12:49:53;;;;;;;2.42;0.60;;;25.20;49.00;;;;;;5010325;28;20435;-74
2024/04/06 12:52:19;;;;;;;1.85;0.60;;;25.20;49.70;;;;;;5009897;28;20033;-75
2024/04/06 12:54:45;;;;;;;6.05;0.77;;;25.30;48.60;;;;;;5025243;28;20092;-75
2024/04/06 12:59:55;;;;;;;1.45;0.50;;;25.40;48.20;;;;;;5010177;28;20122;-74
2024/04/06 13:02:20;;;;;;;4.65;0.43;;;25.40;49.30;;;;;;5009897;28;20495;-75